Time;durP1;ratioP1;P1;durP2;ratioP2;P2;SDS_P1;SDS_P2;PMS_P1;PMS_P2;Temp;Humidity;BMP_temperature;BMP_pressure;BME280_temperature;BME280_humidity;BME280_pressure;Samples;Min_cycle;Max_cycle;Signal;HPM_P1;HPM_P2
2021/09/07 00:02:05;;;;;;;9.93;4.70;;;;;;;14.40;85.38;97946.16;4984012;28;20422;-63
2021/09/07 00:04:32;;;;;;;7.93;4.38;;;;;;;13.75;86.35;97869.34;4984422;28;20416;-64
2021/09/07 00:06:59;;;;;;;8.27;4.75;;;;;;;14.18;86.41;97950.50;4982893;28;20444;-64
2021/09/07 00:09:25;;;;;;;8.43;4.90;;;;;;;13.98;87.75;97959.28;4984402;28;20065;-64
2021/09/07 00:11:52;;;;;;;7.07;4.80;;;;;;;13.77;88.69;97940.19;4984151;28;20115;-65
2021/09/07 00:14:19;;;;;;;9.75;4.03;;;;;;;11.68;88.79;97599.16;4984053;28;20050;-63
2021/09/07 00:16:46;;;;;;;6.85;4.32;;;;;;;12.01;89.21;97657.75;4983855;28;20065;-64
2021/09/07 00:19:13;;;;;;;7.55;4.45;;;;;;;13.50;89.97;97903.09;4984213;28;20061;-65
2021/09/07 00:21:50;;;;;;;9.00;5.10;;;;;;;13.53;89.79;97907.94;4984366;28;20054;-63
2021/09/07 00:24:19;;;;;;;8.10;4.25;;;;;;;13.53;90.67;97907.94;4982349;28;20061;-65
2021/09/07 00:26:46;;;;;;;8.45;3.72;;;;;;;13.73;91.18;97947.69;4983930;28;20062;-63
2021/09/07 00:29:12;;;;;;;6.18;3.97;;;;;;;13.68;91.03;97943.22;4983764;28;20059;-63
2021/09/07 00:31:39;;;;;;;7.72;4.03;;;;;;;13.61;91.86;97945.06;4984056;28;20054;-63
2021/09/07 00:34:06;;;;;;;9.02;4.45;;;;;;;12.93;92.12;97828.00;4983758;28;20054;-64
2021/09/07 00:36:32;;;;;;;8.35;4.10;;;;;;;13.54;92.35;97948.53;4982708;28;20062;-63
2021/09/07 00:38:59;;;;;;;8.35;4.57;;;;;;;13.44;92.93;97931.59;4983552;28;20065;-63
2021/09/07 00:41:26;;;;;;;10.50;4.55;;;;;;;13.53;92.95;97935.75;4983707;28;20162;-66
2021/09/07 00:43:53;;;;;;;6.82;4.55;;;;;;;13.47;93.04;97930.84;4983778;28;20058;-63
2021/09/07 00:46:19;;;;;;;7.85;4.50;;;;;;;12.89;93.47;97862.47;4982075;28;20055;-63
2021/09/07 00:48:46;;;;;;;9.98;3.78;;;;;;;13.38;93.44;97938.63;4981778;28;20065;-64
2021/09/07 00:51:13;;;;;;;6.70;3.97;;;;;;;11.19;93.56;97586.91;4982073;28;20066;-63
2021/09/07 00:53:41;;;;;;;6.50;4.15;;;;;;;12.93;93.47;97858.56;4981808;28;20053;-64
2021/09/07 00:56:10;;;;;;;13.43;4.00;;;;;;;13.35;94.28;97929.06;4983525;28;20046;-63
2021/09/07 00:58:39;;;;;;;6.80;3.53;;;;;;;13.10;93.06;97882.41;4982431;28;20050;-63
2021/09/07 01:01:06;;;;;;;9.00;3.95;;;;;;;12.94;93.92;97868.56;4982677;28;20054;-63
2021/09/07 01:03:33;;;;;;;10.23;4.40;;;;;;;13.28;94.10;97917.75;4983621;28;20050;-63
2021/09/07 01:05:59;;;;;;;8.07;3.92;;;;;;;13.15;94.32;97907.94;4983633;28;20054;-63
2021/09/07 01:08:26;;;;;;;7.57;4.03;;;;;;;12.62;93.85;97839.25;4981543;28;20062;-63
2021/09/07 01:10:53;;;;;;;9.95;4.22;;;;;;;13.14;94.13;97927.78;4982447;28;20496;-63
2021/09/07 01:13:19;;;;;;;6.65;3.50;;;;;;;13.16;93.66;97920.69;4981983;28;20466;-64
2021/09/07 01:15:48;;;;;;;7.57;4.30;;;;;;;12.96;93.83;97902.34;4981882;28;20441;-63
2021/09/07 01:18:15;;;;;;;5.70;3.85;;;;;;;12.59;94.90;97878.91;4983397;28;20061;-62
2021/09/07 01:20:41;;;;;;;8.20;3.80;;;;;;;12.91;94.90;97929.66;4983053;28;20050;-63
2021/09/07 01:23:08;;;;;;;10.98;3.65;;;;;;;12.89;95.81;97938.34;4983226;28;20054;-65
2021/09/07 01:25:35;;;;;;;6.60;3.97;;;;;;;12.80;96.10;97934.97;4981386;28;20607;-62
2021/09/07 01:28:02;;;;;;;8.27;4.00;;;;;;;12.76;96.14;97938.81;4983045;28;20055;-64
2021/09/07 01:30:29;;;;;;;9.20;4.32;;;;;;;11.68;96.42;97776.75;4982970;28;20464;-62
2021/09/07 01:32:56;;;;;;;8.85;3.97;;;;;;;12.67;96.16;97930.72;4981946;28;20051;-62
2021/09/07 01:35:23;;;;;;;7.80;4.43;;;;;;;12.56;97.04;97924.09;4981710;28;20050;-62
2021/09/07 01:37:50;;;;;;;6.05;3.78;;;;;;;12.24;97.66;97878.06;4982522;28;20402;-62
2021/09/07 01:40:16;;;;;;;6.00;4.07;;;;;;;12.51;97.12;97918.81;4982878;28;20054;-64
2021/09/07 01:42:43;;;;;;;8.23;3.78;;;;;;;12.06;97.09;97833.22;4980857;28;20058;-62
2021/09/07 01:45:10;;;;;;;11.50;4.63;;;;;;;12.62;96.38;97919.03;4981339;28;20054;-63
2021/09/07 01:47:41;;;;;;;10.23;3.80;;;;;;;12.61;96.27;97932.16;4981382;28;20057;-62
2021/09/07 01:50:09;;;;;;;10.82;4.28;;;;;;;12.55;95.53;97916.91;4983366;28;20588;-62
2021/09/07 01:52:36;;;;;;;5.88;3.90;;;;;;;12.51;95.40;97920.78;4983048;28;20191;-62
2021/09/07 01:55:03;;;;;;;7.05;3.78;;;;;;;11.85;94.70;97799.41;4982728;28;20054;-62
2021/09/07 01:57:30;;;;;;;7.43;3.70;;;;;;;12.19;94.92;97872.78;4981572;28;20497;-62
2021/09/07 01:59:57;;;;;;;7.43;4.15;;;;;;;12.18;95.68;97868.41;4982493;28;20050;-62
2021/09/07 02:02:23;;;;;;;8.57;3.97;;;;;;;12.49;94.84;97907.25;5016379;28;20048;-65
2021/09/07 02:04:50;;;;;;;8.48;4.10;;;;;;;12.37;96.35;97912.91;5062639;28;20156;-62
2021/09/07 02:07:17;;;;;;;6.05;3.75;;;;;;;12.30;97.00;97912.75;5064317;28;20330;-61
2021/09/07 02:09:44;;;;;;;6.50;3.75;;;;;;;12.06;95.40;97849.09;5064493;28;20056;-62
2021/09/07 02:12:11;;;;;;;6.18;3.78;;;;;;;12.23;95.65;97910.59;5063372;28;20147;-62
2021/09/07 02:14:38;;;;;;;8.10;3.70;;;;;;;12.14;96.36;97918.31;5062958;28;20060;-62
2021/09/07 02:17:04;;;;;;;5.57;4.10;;;;;;;11.86;96.20;97880.69;5063125;28;20048;-62
2021/09/07 02:19:31;;;;;;;5.68;3.85;;;;;;;11.88;95.82;97889.47;5064676;28;20577;-63
2021/09/07 02:21:58;;;;;;;5.28;3.55;;;;;;;12.06;95.82;97921.28;5063595;28;20503;-61
2021/09/07 02:24:25;;;;;;;6.30;3.55;;;;;;;11.99;96.67;97923.88;5064433;28;20055;-61
2021/09/07 02:26:51;;;;;;;5.68;3.53;;;;;;;11.85;97.13;97906.84;5064330;28;20044;-61
2021/09/07 02:29:18;;;;;;;8.43;4.50;;;;;;;11.96;97.62;97919.03;5062300;28;20059;-61
2021/09/07 02:31:45;;;;;;;7.25;4.35;;;;;;;11.97;97.80;97918.69;5062697;28;20067;-65
2021/09/07 02:34:11;;;;;;;6.07;4.55;;;;;;;11.53;98.35;97858.00;5062563;28;20090;-62
2021/09/07 02:36:38;;;;;;;13.35;4.80;;;;;;;11.66;98.07;97890.91;5063380;28;20063;-63
2021/09/07 02:39:05;;;;;;;7.03;4.13;;;;;;;11.99;97.60;97927.47;5063622;28;20052;-62
2021/09/07 02:41:31;;;;;;;7.07;4.55;;;;;;;11.84;97.38;97913.53;5063658;28;20055;-62
2021/09/07 02:43:58;;;;;;;7.97;3.63;;;;;;;11.70;99.11;97913.19;5063804;28;20052;-61
2021/09/07 02:46:25;;;;;;;9.13;4.60;;;;;;;11.91;98.04;97924.84;5062576;28;20063;-62
2021/09/07 02:48:52;;;;;;;8.10;4.13;;;;;;;11.87;97.89;97935.84;5063515;28;20053;-62
2021/09/07 02:51:19;;;;;;;7.88;4.43;;;;;;;11.94;97.20;97924.13;5063794;28;20060;-63
2021/09/07 02:53:46;;;;;;;8.90;5.15;;;;;;;11.36;97.21;97836.13;5063686;28;20066;-62
2021/09/07 02:56:13;;;;;;;8.73;4.93;;;;;;;11.61;96.11;97905.00;5063314;28;20054;-64
2021/09/07 02:58:40;;;;;;;7.10;4.60;;;;;;;12.01;95.72;97929.88;5063326;28;20054;-63
2021/09/07 03:01:07;;;;;;;7.50;4.65;;;;;;;11.57;96.50;97870.00;5063489;28;20053;-62
2021/09/07 03:03:36;;;;;;;5.40;4.13;;;;;;;11.88;96.53;97942.22;5063504;28;20080;-62
2021/09/07 03:06:03;;;;;;;11.80;4.93;;;;;;;11.65;96.00;97888.50;5062003;28;20110;-63
2021/09/07 03:08:31;;;;;;;11.60;4.50;;;;;;;11.77;97.04;97924.47;5062121;28;20062;-63
2021/09/07 03:10:58;;;;;;;7.70;4.03;;;;;;;11.19;97.56;97853.91;5062656;28;20521;-63
2021/09/07 03:13:25;;;;;;;9.23;4.45;;;;;;;11.73;98.11;97929.13;5063510;28;20173;-62
2021/09/07 03:15:51;;;;;;;9.82;4.55;;;;;;;11.57;97.59;97893.00;5063060;28;20060;-63
2021/09/07 03:18:18;;;;;;;8.18;3.53;;;;;;;11.01;97.24;97811.03;5061319;28;20052;-62
2021/09/07 03:20:45;;;;;;;5.97;4.03;;;;;;;11.13;96.48;97854.53;5063168;28;20496;-62
2021/09/07 03:23:12;;;;;;;6.82;3.80;;;;;;;11.68;97.25;97934.97;5063301;28;20514;-62
2021/09/07 03:25:39;;;;;;;6.55;3.95;;;;;;;11.64;97.52;97940.41;5063325;28;20056;-61
2021/09/07 03:28:06;;;;;;;10.30;3.88;;;;;;;11.71;96.44;97925.91;5062484;28;20515;-62
2021/09/07 03:30:33;;;;;;;8.68;4.05;;;;;;;11.63;96.55;97935.22;5063923;28;20122;-61
2021/09/07 03:33:00;;;;;;;5.57;3.72;;;;;;;11.52;97.60;97939.63;5066871;28;20447;-62
2021/09/07 03:35:28;;;;;;;8.02;3.83;;;;;;;11.07;98.55;97886.44;5067571;28;20061;-63
2021/09/07 03:37:55;;;;;;;8.75;4.18;;;;;;;11.43;97.75;97941.75;5067040;28;20550;-61
2021/09/07 03:40:22;;;;;;;6.75;4.18;;;;;;;11.26;98.68;97953.13;5067636;28;20518;-62
2021/09/07 03:42:48;;;;;;;6.60;4.13;;;;;;;11.21;99.31;97933.97;5066031;28;20059;-62
2021/09/07 03:45:15;;;;;;;12.32;4.30;;;;;;;11.04;99.27;97923.19;5067507;28;20484;-63
2021/09/07 03:47:42;;;;;;;22.23;9.73;;;;;;;11.38;97.96;97958.66;5067267;28;20058;-63
2021/09/07 03:50:10;;;;;;;10.60;5.50;;;;;;;11.32;99.04;97962.81;5066817;28;20067;-63
2021/09/07 03:52:38;;;;;;;12.93;6.35;;;;;;;11.25;98.96;97948.75;5066979;28;20568;-63
2021/09/07 03:55:05;;;;;;;10.13;4.22;;;;;;;11.32;98.60;97969.19;5067033;28;20131;-63
2021/09/07 03:57:32;;;;;;;11.93;4.57;;;;;;;11.26;99.26;97958.69;5066886;28;20362;-62
2021/09/07 03:59:59;;;;;;;10.45;4.20;;;;;;;11.42;97.42;97978.97;5066795;28;20418;-62
2021/09/07 04:02:27;;;;;;;6.55;4.63;;;;;;;11.21;98.43;97962.53;5065590;28;20062;-63
2021/09/07 04:04:54;;;;;;;8.52;4.53;;;;;;;11.35;98.55;97978.78;5067201;28;20109;-64
2021/09/07 04:07:20;;;;;;;8.65;4.18;;;;;;;11.40;97.45;97986.84;5065296;28;20052;-62
2021/09/07 04:09:47;;;;;;;14.07;4.93;;;;;;;11.36;97.47;97988.72;5066595;28;20366;-63
2021/09/07 04:12:14;;;;;;;10.60;4.28;;;;;;;11.37;97.08;97982.00;5065047;28;20044;-62
2021/09/07 04:14:41;;;;;;;10.70;4.68;;;;;;;11.37;95.72;97982.00;5064568;28;20473;-62
2021/09/07 04:17:09;;;;;;;9.93;4.03;;;;;;;10.89;95.84;97921.94;5066625;28;20251;-63
2021/09/07 04:19:36;;;;;;;11.07;5.80;;;;;;;11.21;96.90;97984.72;5066910;28;20048;-63
2021/09/07 04:22:03;;;;;;;8.50;5.68;;;;;;;11.26;98.51;97983.66;5066395;28;20048;-63
2021/09/07 04:24:30;;;;;;;15.75;8.10;;;;;;;11.42;96.49;97987.28;5066504;28;20052;-62
2021/09/07 04:26:58;;;;;;;15.20;6.93;;;;;;;11.42;95.76;97985.34;5064663;28;20062;-63
2021/09/07 04:29:25;;;;;;;10.18;7.13;;;;;;;11.45;95.31;97986.59;5066132;28;20058;-62
2021/09/07 04:31:52;;;;;;;9.35;6.28;;;;;;;11.02;95.23;97958.78;5065806;28;20059;-64
2021/09/07 04:34:19;;;;;;;12.10;7.00;;;;;;;11.44;96.37;97987.75;5066186;28;20049;-63
2021/09/07 04:36:45;;;;;;;13.27;7.05;;;;;;;11.58;95.48;97990.94;5065022;28;20055;-62
2021/09/07 04:39:12;;;;;;;15.23;7.38;;;;;;;11.75;94.59;97994.22;5065780;28;20053;-63
2021/09/07 04:41:39;;;;;;;8.57;6.25;;;;;;;11.77;93.72;98002.22;5064366;28;20444;-63
2021/09/07 04:44:06;;;;;;;11.43;5.63;;;;;;;11.96;94.62;97994.00;5065052;28;20052;-63
2021/09/07 04:46:32;;;;;;;11.07;6.05;;;;;;;12.22;93.05;97997.06;5066028;28;20052;-64
2021/09/07 04:48:59;;;;;;;10.50;5.40;;;;;;;12.30;92.05;97987.75;5065481;28;20087;-62
2021/09/07 04:51:26;;;;;;;13.98;4.20;;;;;;;10.29;90.98;97659.81;5064308;28;20368;-61
2021/09/07 04:53:53;;;;;;;11.25;4.40;;;;;;;12.23;90.36;97968.13;5063350;28;20063;-61
2021/09/07 04:56:20;;;;;;;28.25;5.85;;;;;;;12.59;90.44;98001.19;5065337;28;20063;-63
2021/09/07 04:58:46;;;;;;;8.23;4.63;;;;;;;12.38;91.16;97961.75;5064693;28;20057;-63
2021/09/07 05:01:13;;;;;;;14.23;4.78;;;;;;;12.44;91.09;97960.31;5065098;28;20052;-62
2021/09/07 05:03:40;;;;;;;11.52;4.72;;;;;;;12.92;88.84;98000.78;5065486;28;20422;-64
2021/09/07 05:06:08;;;;;;;8.98;4.82;;;;;;;12.88;89.84;98002.69;5063386;28;20135;-63
2021/09/07 05:08:35;;;;;;;8.52;5.30;;;;;;;13.04;89.90;98007.06;5065350;28;20049;-65
2021/09/07 05:11:05;;;;;;;11.48;4.32;;;;;;;13.14;89.82;97995.38;5064891;28;20060;-64
2021/09/07 05:13:32;;;;;;;21.75;9.13;;;;;;;12.98;89.54;97955.63;5065345;28;20048;-65
2021/09/07 05:15:59;;;;;;;8.77;4.20;;;;;;;12.76;89.07;97922.16;5064673;28;20056;-64
2021/09/07 05:18:25;;;;;;;7.35;3.80;;;;;;;13.40;88.68;97986.41;5065371;28;20055;-65
2021/09/07 05:20:52;;;;;;;13.18;4.15;;;;;;;13.71;88.28;98005.72;5064707;28;20048;-64
2021/09/07 05:23:19;;;;;;;8.68;3.95;;;;;;;13.84;87.71;98001.63;5065061;28;20084;-64
2021/09/07 05:25:46;;;;;;;14.75;4.60;;;;;;;14.01;86.25;98044.91;5065191;28;20466;-65
2021/09/07 05:28:13;;;;;;;7.32;3.70;;;;;;;13.65;85.91;97948.72;5064815;28;20059;-65
2021/09/07 05:30:40;;;;;;;7.03;4.13;;;;;;;14.31;85.90;98009.69;5064906;28;20053;-64
2021/09/07 05:33:07;;;;;;;7.90;3.55;;;;;;;14.54;84.64;98002.13;5063157;28;20059;-64
2021/09/07 05:35:33;;;;;;;7.55;4.30;;;;;;;14.66;83.71;97993.56;5063160;28;20044;-65
2021/09/07 05:38:03;;;;;;;10.20;4.50;;;;;;;14.42;82.76;97938.19;5064603;28;20063;-64
2021/09/07 05:40:29;;;;;;;14.57;4.93;;;;;;;14.60;82.29;97933.72;5065029;28;20063;-64
2021/09/07 05:42:56;;;;;;;16.83;6.80;;;;;;;15.01;82.20;97994.13;5062442;28;20196;-64
2021/09/07 05:45:23;;;;;;;11.25;5.50;;;;;;;14.76;83.22;97953.88;5063137;28;20106;-69
2021/09/07 05:47:50;;;;;;;16.25;5.20;;;;;;;14.77;82.03;97916.44;5063133;28;20048;-64
2021/09/07 05:50:17;;;;;;;11.45;5.18;;;;;;;13.78;81.21;97746.06;5064289;28;20135;-64
2021/09/07 05:52:45;;;;;;;13.35;5.72;;;;;;;15.25;81.28;97982.50;5064812;28;20056;-64
2021/09/07 05:55:13;;;;;;;10.57;4.97;;;;;;;15.27;80.41;97974.53;5076019;28;20140;-63
2021/09/07 05:57:40;;;;;;;10.50;5.30;;;;;;;15.08;79.70;97910.47;5060576;28;20080;-63
2021/09/07 06:00:10;;;;;;;15.48;5.35;;;;;;;15.12;79.98;97912.16;5063915;28;20045;-66
2021/09/07 06:02:38;;;;;;;10.25;5.10;;;;;;;15.70;78.95;97973.94;5095519;28;20056;-63
2021/09/07 06:05:06;;;;;;;12.85;4.90;;;;;;;15.79;78.96;97980.03;5062201;28;20049;-64
2021/09/07 06:07:32;;;;;;;7.43;4.80;;;;;;;15.85;78.44;97958.16;5061909;28;20500;-66
2021/09/07 06:09:59;;;;;;;12.68;4.95;;;;;;;16.16;78.01;97982.81;5064050;28;20060;-63
2021/09/07 06:12:26;;;;;;;11.13;4.65;;;;;;;16.00;77.57;97926.34;5063496;28;20048;-60
2021/09/07 06:14:53;;;;;;;9.38;4.95;;;;;;;15.95;76.10;97910.75;5060077;28;20062;-62
2021/09/07 06:17:19;;;;;;;11.07;4.78;;;;;;;15.84;73.21;97853.16;5044116;28;20283;-60
2021/09/07 06:19:46;;;;;;;13.73;4.63;;;;;;;14.93;74.18;97730.16;5054316;28;20044;-62
2021/09/07 06:22:13;;;;;;;12.80;4.38;;;;;;;16.51;73.44;97942.06;5063691;28;20055;-63
2021/09/07 06:24:40;;;;;;;13.10;5.25;;;;;;;16.47;72.95;97915.25;5063701;28;20062;-63
2021/09/07 06:27:06;;;;;;;8.98;5.20;;;;;;;17.01;70.54;97973.22;5061053;28;20064;-63
2021/09/07 06:29:33;;;;;;;14.65;4.30;;;;;;;16.53;70.41;97936.84;5054749;28;20058;-62
2021/09/07 06:32:00;;;;;;;6.53;4.30;;;;;;;17.23;69.82;97980.56;5062161;28;20055;-64
2021/09/07 06:34:27;;;;;;;8.68;4.75;;;;;;;16.53;69.35;97872.53;5063145;28;20040;-68
2021/09/07 06:36:55;;;;;;;7.47;3.95;;;;;;;13.81;70.70;97511.41;5060979;28;20541;-65
2021/09/07 06:39:23;;;;;;;8.45;3.67;;;;;;;17.09;67.21;97986.03;5063325;28;20052;-68
2021/09/07 06:41:50;;;;;;;6.95;3.80;;;;;;;17.28;65.34;97982.94;5063990;28;20057;-63
2021/09/07 06:44:16;;;;;;;6.53;3.72;;;;;;;17.28;66.04;97982.94;5058703;28;20059;-62
2021/09/07 06:46:43;;;;;;;8.98;5.20;;;;;;;17.01;61.81;97918.00;5058145;28;20511;-67
2021/09/07 06:49:10;;;;;;;9.00;3.78;;;;;;;17.72;54.56;97992.03;5062773;28;20052;-64
2021/09/07 06:51:37;;;;;;;6.18;2.20;;;;;;;17.20;51.09;97920.50;5062114;28;20127;-65
2021/09/07 06:54:04;;;;;;;5.13;2.75;;;;;;;17.84;50.83;97955.25;5060997;28;20060;-70
2021/09/07 06:56:31;;;;;;;9.60;3.72;;;;;;;18.09;48.92;97984.16;5052861;28;20052;-61
2021/09/07 06:58:58;;;;;;;6.75;2.78;;;;;;;17.89;49.21;97957.66;5062017;28;20056;-61
2021/09/07 07:01:24;;;;;;;7.68;3.10;;;;;;;18.19;48.51;98005.81;5063814;28;20092;-63
2021/09/07 07:03:52;;;;;;;5.88;2.67;;;;;;;17.88;48.82;97933.59;5062771;28;20551;-61
2021/09/07 07:06:19;;;;;;;10.02;2.90;;;;;;;18.61;49.11;97994.69;5057269;28;20099;-60
2021/09/07 07:08:45;;;;;;;4.63;2.45;;;;;;;18.75;47.21;97983.47;5043247;28;20059;-66
2021/09/07 07:11:12;;;;;;;5.93;2.22;;;;;;;18.67;47.49;97911.69;5075912;28;20057;-61
2021/09/07 07:13:39;;;;;;;9.38;2.50;;;;;;;19.14;46.35;97995.47;5062597;28;20052;-64
2021/09/07 07:16:06;;;;;;;4.63;2.45;;;;;;;18.94;45.42;97956.97;5054161;28;20059;-64
2021/09/07 07:18:33;;;;;;;4.50;2.28;;;;;;;19.01;45.27;97924.09;5061993;28;20053;-61
2021/09/07 07:20:59;;;;;;;5.25;2.50;;;;;;;18.96;45.01;98000.31;5062730;28;20126;-62
2021/09/07 07:23:26;;;;;;;4.10;2.45;;;;;;;18.97;46.43;97996.28;5062713;28;20132;-62
2021/09/07 07:25:53;;;;;;;4.30;2.28;;;;;;;19.09;43.90;97970.63;5062371;28;20052;-60
2021/09/07 07:28:20;;;;;;;120.70;75.68;;;;;;;19.06;45.36;97999.47;5044663;28;20541;-60
2021/09/07 07:30:47;;;;;;;17.55;7.93;;;;;;;19.44;45.68;97998.66;5061396;28;20056;-67
2021/09/07 07:33:14;;;;;;;7.55;2.75;;;;;;;19.61;44.35;97997.00;5062256;28;20057;-61
2021/09/07 07:35:42;;;;;;;5.63;2.42;;;;;;;19.37;44.59;97998.69;5061817;28;20519;-65
2021/09/07 07:38:09;;;;;;;4.40;1.92;;;;;;;19.22;46.49;97997.06;5062361;28;20053;-61
2021/09/07 07:40:35;;;;;;;3.58;2.63;;;;;;;18.72;47.33;97911.28;5062546;28;20048;-60
2021/09/07 07:43:04;;;;;;;6.07;2.38;;;;;;;18.43;46.90;97926.50;5062594;28;20503;-67
2021/09/07 07:45:30;;;;;;;2.85;2.25;;;;;;;19.15;47.17;97999.88;5062434;28;20059;-60
2021/09/07 07:47:57;;;;;;;5.22;2.28;;;;;;;18.82;47.03;98000.31;5061984;28;20083;-70
2021/09/07 07:50:24;;;;;;;7.07;3.10;;;;;;;18.81;48.93;97984.66;5064834;28;20159;-68
2021/09/07 07:52:51;;;;;;;8.00;3.38;;;;;;;19.40;48.05;98009.09;5062526;28;20055;-67
2021/09/07 07:55:17;;;;;;;4.88;2.00;;;;;;;19.45;47.10;98005.88;5062486;28;20084;-65
2021/09/07 07:57:44;;;;;;;10.55;4.32;;;;;;;19.74;47.35;98002.97;5061475;28;20053;-67
2021/09/07 08:00:11;;;;;;;5.05;2.17;;;;;;;19.73;46.81;98007.78;5062965;28;20055;-66
2021/09/07 08:02:39;;;;;;;4.03;2.05;;;;;;;19.71;46.53;98001.00;5062150;28;20049;-67
2021/09/07 08:05:07;;;;;;;3.20;2.10;;;;;;;19.73;46.30;97998.59;5071524;28;20052;-65
2021/09/07 08:07:34;;;;;;;5.35;2.35;;;;;;;19.63;46.14;97965.66;5060780;28;20134;-65
2021/09/07 08:10:00;;;;;;;3.83;1.80;;;;;;;20.14;45.69;97994.78;5067148;28;20055;-68
2021/09/07 08:12:27;;;;;;;3.78;2.45;;;;;;;20.49;45.07;97999.41;5088270;28;20132;-62
2021/09/07 08:14:54;;;;;;;5.20;2.40;;;;;;;20.57;46.04;98006.59;5065967;28;20174;-60
2021/09/07 08:17:20;;;;;;;8.52;3.10;;;;;;;21.43;45.26;97988.56;5069283;28;20506;-68
2021/09/07 08:19:47;;;;;;;4.20;2.70;;;;;;;21.70;44.32;97992.28;5080328;28;20059;-62
2021/09/07 08:22:14;;;;;;;3.70;2.75;;;;;;;21.36;44.48;97902.03;5085900;28;20059;-68
2021/09/07 08:24:41;;;;;;;5.68;3.40;;;;;;;21.22;45.67;97983.94;5084523;28;20131;-63
2021/09/07 08:27:08;;;;;;;7.35;2.78;;;;;;;21.15;45.39;97995.25;5067099;28;20052;-63
2021/09/07 08:29:34;;;;;;;7.55;3.20;;;;;;;21.42;45.54;97999.03;5064615;28;20044;-61
2021/09/07 08:32:01;;;;;;;3.50;2.60;;;;;;;20.85;45.16;97955.66;5075955;28;20048;-64
2021/09/07 08:34:28;;;;;;;6.75;2.38;;;;;;;20.95;44.52;97915.34;5076969;28;20056;-63
2021/09/07 08:36:55;;;;;;;6.05;3.38;;;;;;;21.21;45.04;97982.34;5070880;28;20447;-62
2021/09/07 08:39:22;;;;;;;5.60;2.90;;;;;;;20.59;47.10;97945.03;5063972;28;20068;-64
2021/09/07 08:41:49;;;;;;;7.32;2.65;;;;;;;20.99;46.06;97980.94;5064311;28;20056;-62
2021/09/07 08:44:19;;;;;;;6.40;3.85;;;;;;;20.77;46.76;97985.91;5081121;28;20058;-62
2021/09/07 08:46:46;;;;;;;10.20;3.65;;;;;;;20.71;47.20;97936.06;5074144;28;20079;-62
2021/09/07 08:49:17;;;;;;;5.43;3.13;;;;;;;21.46;46.05;97973.63;5086123;28;20052;-62
2021/09/07 08:51:45;;;;;;;4.72;2.63;;;;;;;21.82;44.48;97943.81;5085396;28;20059;-62
2021/09/07 08:54:11;;;;;;;4.47;2.65;;;;;;;20.98;43.48;97717.31;5084338;28;20529;-61
2021/09/07 08:56:39;;;;;;;3.33;2.35;;;;;;;22.20;44.63;97963.03;5083981;28;20048;-62
2021/09/07 08:59:07;;;;;;;7.25;3.78;;;;;;;21.57;45.86;97944.09;5085936;28;20087;-62
2021/09/07 09:01:42;;;;;;;7.45;2.72;;;;;;;21.18;43.79;97856.38;5084968;28;20079;-62
2021/09/07 09:04:28;;;;;;;3.30;2.80;;;;;;;21.86;42.98;97967.94;5085261;28;20734;-61
2021/09/07 09:06:56;;;;;;;6.47;2.60;;;;;;;21.70;43.44;97891.56;5080081;28;20050;-65
2021/09/07 09:09:35;;;;;;;7.97;2.70;;;;;;;21.60;43.77;97909.41;5078848;28;20098;-64
2021/09/07 09:12:02;;;;;;;6.78;2.20;;;;;;;21.94;43.29;97935.56;5070028;28;20048;-65
2021/09/07 09:14:33;;;;;;;2.50;2.10;;;;;;;21.93;43.69;97950.91;5075010;28;20538;-65
2021/09/07 09:17:05;;;;;;;4.75;2.30;;;;;;;21.77;43.86;97930.16;5074801;28;20622;-61
2021/09/07 09:20:08;;;;;;;10.80;3.10;;;;;;;21.87;44.37;97946.97;5074914;28;20048;-67
2021/09/07 09:22:53;;;;;;;3.88;2.10;;;;;;;22.15;43.64;97926.00;5077025;28;20517;-62
2021/09/07 09:25:19;;;;;;;7.18;2.40;;;;;;;22.85;43.09;97949.56;5079600;28;20471;-61
2021/09/07 09:27:48;;;;;;;3.63;2.40;;;;;;;22.79;42.33;97898.41;5083239;28;20056;-67
2021/09/07 09:30:16;;;;;;;3.50;2.20;;;;;;;23.15;41.19;97907.84;5084673;28;20052;-68
2021/09/07 09:32:48;;;;;;;3.90;2.28;;;;;;;22.66;40.92;97851.41;4999507;28;20054;-68
2021/09/07 09:35:15;;;;;;;5.43;4.20;;;;;;;23.42;41.46;97939.66;4962998;28;20058;-67
2021/09/07 09:37:58;;;;;;;5.53;3.10;;;;;;;23.29;40.04;97946.38;4963091;28;20053;-66
2021/09/07 09:40:26;;;;;;;4.30;2.90;;;;;;;22.63;41.07;97878.50;4963473;28;20054;-65
2021/09/07 09:42:53;;;;;;;4.88;3.13;;;;;;;22.53;42.09;97898.44;4959967;28;20047;-65
2021/09/07 09:45:28;;;;;;;2.50;2.28;;;;;;;22.57;43.02;97938.72;4962066;28;20390;-69
2021/09/07 09:47:59;;;;;;;4.15;2.47;;;;;;;22.63;42.24;97895.44;4961915;28;20061;-62
2021/09/07 09:50:26;;;;;;;5.53;2.78;;;;;;;23.66;40.61;97937.56;4960336;28;20348;-60
2021/09/07 09:52:57;;;;;;;4.88;2.67;;;;;;;22.88;42.84;97934.56;4985742;28;20422;-61
2021/09/07 09:55:24;;;;;;;3.92;2.80;;;;;;;23.21;41.65;97928.72;4962201;28;20779;-65
2021/09/07 09:57:50;;;;;;;3.35;2.50;;;;;;;23.36;40.88;97932.88;4980128;28;20082;-60
2021/09/07 10:00:18;;;;;;;5.03;3.22;;;;;;;22.82;41.68;97893.91;4962516;28;20057;-63
2021/09/07 10:02:45;;;;;;;3.28;2.33;;;;;;;23.00;42.06;97900.06;4962532;28;20061;-64
2021/09/07 10:05:14;;;;;;;5.72;3.22;;;;;;;22.41;42.42;97902.63;4961104;28;20059;-67
2021/09/07 10:08:02;;;;;;;8.82;2.35;;;;;;;22.98;41.90;97919.47;4962107;28;20051;-63
2021/09/07 10:10:29;;;;;;;8.60;3.10;;;;;;;22.56;43.43;97931.50;4962446;28;20513;-64
2021/09/07 10:12:59;;;;;;;3.38;2.97;;;;;;;22.44;42.26;97823.53;4962277;28;20221;-64
2021/09/07 10:15:34;;;;;;;3.50;2.55;;;;;;;23.41;41.65;97920.31;4959901;28;20062;-70
2021/09/07 10:24:15;;;;;;;4.70;3.13;;;;;;;24.75;38.80;97892.63;4960516;28;20046;-65
2021/09/07 10:26:42;;;;;;;7.93;3.70;;;;;;;24.87;38.00;97915.41;4958171;28;20503;-70
2021/09/07 10:29:21;;;;;;;4.18;2.42;;;;;;;25.10;36.66;97871.88;4960955;28;20065;-65
2021/09/07 10:31:54;;;;;;;6.60;3.45;;;;;;;25.15;36.75;97869.28;4961477;28;20066;-67
2021/09/07 10:34:24;;;;;;;3.92;2.90;;;;;;;25.89;36.55;97901.22;4969457;28;20050;-65
2021/09/07 10:37:00;;;;;;;4.03;2.70;;;;;;;25.90;36.65;97891.47;4962166;28;20062;-63
2021/09/07 10:39:38;;;;;;;6.50;3.97;;;;;;;25.52;37.47;97898.28;4960338;28;20050;-61
2021/09/07 10:42:07;;;;;;;7.30;3.92;;;;;;;25.77;35.92;97858.59;4961780;28;20081;-61
2021/09/07 10:44:39;;;;;;;6.78;3.38;;;;;;;24.56;37.08;97891.47;4967526;28;20047;-62
2021/09/07 10:47:15;;;;;;;3.40;2.88;;;;;;;25.32;36.65;97901.25;4965678;28;20042;-64
2021/09/07 10:49:53;;;;;;;4.95;3.78;;;;;;;25.05;36.55;97776.00;4957344;28;20047;-67
2021/09/07 10:52:33;;;;;;;5.72;3.38;;;;;;;24.88;36.65;97893.53;4960846;28;20136;-64
2021/09/07 10:55:12;;;;;;;8.05;3.30;;;;;;;24.80;36.90;97887.22;4961645;28;20177;-65
2021/09/07 10:57:41;;;;;;;2.97;2.55;;;;;;;25.44;35.30;97885.53;4959444;28;20332;-63
2021/09/07 11:00:13;;;;;;;5.05;2.88;;;;;;;25.76;35.21;97876.88;4961691;28;20049;-64
2021/09/07 11:02:52;;;;;;;4.95;2.97;;;;;;;26.04;35.15;97874.03;4961295;28;20062;-65
2021/09/07 11:05:22;;;;;;;6.95;4.20;;;;;;;25.74;36.27;97877.34;5009610;28;20056;-64
2021/09/07 11:08:07;;;;;;;3.97;2.80;;;;;;;26.08;35.31;97879.59;5000531;28;20092;-65
2021/09/07 11:10:41;;;;;;;2.88;2.58;;;;;;;25.97;34.84;97842.19;4984588;28;20185;-64
2021/09/07 11:13:09;;;;;;;3.13;2.83;;;;;;;25.93;35.01;97884.06;4994190;28;20071;-61
2021/09/07 11:15:41;;;;;;;5.47;3.10;;;;;;;25.45;35.68;97830.38;5016667;28;20110;-65
2021/09/07 11:18:31;;;;;;;5.75;4.30;;;;;;;26.00;35.62;97879.03;5014479;28;20058;-61
2021/09/07 11:21:00;;;;;;;5.55;4.18;;;;;;;26.07;34.42;97872.31;4980279;28;20047;-65
2021/09/07 11:23:29;;;;;;;9.02;4.47;;;;;;;26.18;35.35;97870.72;4960492;28;20489;-63
2021/09/07 11:26:11;;;;;;;5.82;2.38;;;;;;;26.01;34.63;97862.75;4960760;28;20051;-65
2021/09/07 11:28:44;;;;;;;10.60;5.50;;;;;;;26.20;34.60;97858.91;4975652;28;20492;-61
2021/09/07 11:31:11;;;;;;;6.03;3.22;;;;;;;25.60;35.87;97806.00;4971860;28;20050;-67
2021/09/07 11:33:41;;;;;;;3.13;2.83;;;;;;;26.70;34.29;97867.44;4974562;28;20135;-64
2021/09/07 11:36:13;;;;;;;4.97;3.10;;;;;;;27.20;32.81;97846.59;4956024;28;20050;-62
2021/09/07 11:38:41;;;;;;;4.43;3.00;;;;;;;27.28;33.07;97865.03;4960759;28;20062;-63
2021/09/07 11:41:11;;;;;;;3.15;2.95;;;;;;;27.29;33.57;97858.88;4960999;28;20070;-64
2021/09/07 11:43:40;;;;;;;4.82;3.35;;;;;;;27.53;33.26;97857.19;4960917;28;20057;-63